createdAt,value
2023-02-25T00:02:38.029Z,6.80
2023-02-25T00:07:42.282Z,6.52
2023-02-25T00:12:45.780Z,6.66
2023-02-25T00:17:49.809Z,6.38
2023-02-25T00:22:54.085Z,6.30
2023-02-25T00:27:57.210Z,6.46
2023-02-25T00:33:00.166Z,6.42
2023-02-25T00:38:15.641Z,6.43
2023-02-25T00:43:22.095Z,6.61
2023-02-25T00:48:25.768Z,6.02
2023-02-25T00:53:30.205Z,6.15
2023-02-25T00:58:33.188Z,6.54
2023-02-25T01:03:36.016Z,6.76
2023-02-25T01:08:40.377Z,6.77
2023-02-25T01:13:43.953Z,6.74
2023-02-25T01:18:47.286Z,6.60
2023-02-25T01:23:58.903Z,6.41
2023-02-25T01:29:01.897Z,6.74
2023-02-25T01:34:07.474Z,6.57
2023-02-25T01:39:12.656Z,6.60
2023-02-25T01:44:17.779Z,6.50
2023-02-25T01:49:29.174Z,6.40
2023-02-25T01:54:34.585Z,6.46
2023-02-25T01:59:40.111Z,6.68
2023-02-25T02:04:45.036Z,6.38
2023-02-25T02:09:56.809Z,6.56
2023-02-25T02:15:02.009Z,6.42
2023-02-25T02:20:14.080Z,6.63
2023-02-25T02:25:52.741Z,6.71
2023-02-25T02:31:19.856Z,6.41
2023-02-25T02:36:35.974Z,6.38
2023-02-25T02:41:45.504Z,6.48
2023-02-25T02:46:55.655Z,6.52
2023-02-25T02:52:03.036Z,6.32
2023-02-25T02:57:09.777Z,6.33
2023-02-25T03:02:18.261Z,5.82
2023-02-25T03:07:22.505Z,5.59
2023-02-25T03:12:25.339Z,5.68
2023-02-25T03:17:36.823Z,5.73
2023-02-25T03:22:42.475Z,5.74
2023-02-25T03:27:47.361Z,5.73
2023-02-25T03:33:00.969Z,5.90
2023-02-25T03:38:08.745Z,5.89
2023-02-25T03:43:17.580Z,5.97
2023-02-25T03:48:23.572Z,5.68
2023-02-25T03:53:26.598Z,5.54
2023-02-25T03:58:38.414Z,5.63
2023-02-25T04:03:42.733Z,5.75
2023-02-25T04:08:46.326Z,5.67
2023-02-25T04:13:49.066Z,5.81
2023-02-25T04:18:53.815Z,5.72
2023-02-25T04:23:57.012Z,5.78
2023-02-25T04:28:59.951Z,5.98
2023-02-25T04:34:04.192Z,5.95
2023-02-25T04:39:07.045Z,5.68
2023-02-25T04:44:10.203Z,5.95
2023-02-25T04:49:14.519Z,5.66
2023-02-25T04:54:18.416Z,5.94
2023-02-25T04:59:21.185Z,5.77
2023-02-25T05:04:25.317Z,5.82
2023-02-25T05:09:28.147Z,5.72
2023-02-25T05:14:32.926Z,5.88
2023-02-25T05:19:37.200Z,5.58
2023-02-25T05:24:40.061Z,5.35
2023-02-25T05:29:43.247Z,5.25
2023-02-25T05:34:47.423Z,5.65
2023-02-25T05:39:50.180Z,5.71
2023-02-25T05:44:53.198Z,5.36
2023-02-25T05:49:57.387Z,5.37
2023-02-25T05:55:00.654Z,5.52
2023-02-25T06:00:05.825Z,6.03
2023-02-25T06:05:16.457Z,5.90
2023-02-25T06:10:19.332Z,6.14
2023-02-25T06:15:22.045Z,4.92
2023-02-25T06:20:27.896Z,5.14
2023-02-25T06:25:32.166Z,5.48
2023-02-25T06:30:35.026Z,5.27
2023-02-25T06:35:39.384Z,5.34
2023-02-25T06:40:42.278Z,5.34
2023-02-25T06:45:45.884Z,5.43
2023-02-25T06:50:50.586Z,5.52
2023-02-25T06:55:53.325Z,5.38
2023-02-25T07:00:56.177Z,5.55
2023-02-25T07:06:00.378Z,5.37
2023-02-25T07:11:15.375Z,5.00
2023-02-25T07:16:19.072Z,4.97
2023-02-25T07:21:23.933Z,5.33
2023-02-25T07:26:28.286Z,4.65
2023-02-25T07:31:31.251Z,5.38
2023-02-25T07:36:43.809Z,5.32
2023-02-25T07:41:46.668Z,5.45
2023-02-25T07:46:49.393Z,5.44
2023-02-25T08:11:08.370Z,6.42
2023-02-25T08:16:13.288Z,6.29
2023-02-25T08:21:18.991Z,5.75
2023-02-25T08:26:24.349Z,6.16
2023-02-25T08:31:28.051Z,5.59
2023-02-25T08:36:32.392Z,5.90
2023-02-25T08:41:36.883Z,5.59
2023-02-25T08:46:40.395Z,5.36
2023-02-25T08:51:43.234Z,5.87
2023-02-25T08:56:47.404Z,5.15
2023-02-25T09:01:52.137Z,5.49
2023-02-25T09:06:55.144Z,5.53
2023-02-25T09:11:59.325Z,5.84
2023-02-25T09:17:03.989Z,6.19
2023-02-25T09:22:07.650Z,6.32
2023-02-25T09:27:12.708Z,6.38
2023-02-25T09:32:19.674Z,6.62
2023-02-25T09:37:22.615Z,6.22
2023-02-25T09:42:33.235Z,6.38
2023-02-25T09:47:43.980Z,7.03
2023-02-25T09:52:52.061Z,6.01
2023-02-25T09:58:02.900Z,5.91
2023-02-25T10:03:12.844Z,6.82
2023-02-25T10:08:23.071Z,6.50
2023-02-25T10:13:40.915Z,6.80
2023-02-25T10:19:01.600Z,7.14
2023-02-25T10:24:28.207Z,6.89
2023-02-25T10:29:39.696Z,6.34
2023-02-25T10:34:42.798Z,5.75
2023-02-25T10:39:48.661Z,5.52
2023-02-25T10:44:54.030Z,5.93
2023-02-25T10:50:42.793Z,6.33
2023-02-25T10:55:51.725Z,6.39
2023-02-25T11:01:00.099Z,6.17
2023-02-25T11:06:12.479Z,6.23
2023-02-25T11:11:18.418Z,6.76
2023-02-25T11:16:24.641Z,6.92
2023-02-25T11:21:37.388Z,7.08
2023-02-25T11:26:43.953Z,6.37
2023-02-25T11:31:50.997Z,7.02
2023-02-25T11:36:53.999Z,7.10
2023-02-25T11:41:58.707Z,6.33
2023-02-25T11:47:10.826Z,6.36
2023-02-25T11:52:22.146Z,7.15
2023-02-25T11:57:36.100Z,7.33
2023-02-25T12:02:48.792Z,7.72
2023-02-25T12:08:13.479Z,7.88
2023-02-25T12:13:56.010Z,7.74
2023-02-25T12:19:26.024Z,7.93
2023-02-25T12:24:49.589Z,8.15
2023-02-25T12:30:09.896Z,7.13
2023-02-25T12:35:43.256Z,7.78
2023-02-25T12:41:18.465Z,6.99
2023-02-25T12:46:46.331Z,7.07
2023-02-25T12:52:11.369Z,7.56
2023-02-25T12:57:33.029Z,6.84
2023-02-25T13:02:58.747Z,6.36
2023-02-25T13:08:32.579Z,7.44
2023-02-25T13:14:05.915Z,7.61
2023-02-25T13:19:27.972Z,7.06
2023-02-25T13:24:45.887Z,7.45
2023-02-25T13:30:05.707Z,7.23
2023-02-25T13:35:26.322Z,6.96
2023-02-25T13:40:44.993Z,6.92
2023-02-25T13:46:00.521Z,7.08
2023-02-25T13:51:28.136Z,7.42
2023-02-25T13:56:44.877Z,7.61
2023-02-25T14:02:03.118Z,7.47
2023-02-25T14:07:23.085Z,6.60
2023-02-25T14:12:45.138Z,6.47
2023-02-25T14:18:04.726Z,6.47
2023-02-25T14:23:17.405Z,7.16
2023-02-25T14:28:32.108Z,7.82
2023-02-25T14:34:05.564Z,8.00
2023-02-25T14:39:23.815Z,7.66
2023-02-25T14:44:35.300Z,7.41
2023-02-25T14:49:43.018Z,6.44
2023-02-25T14:55:21.937Z,6.41
2023-02-25T15:01:01.113Z,6.29
2023-02-25T15:06:17.608Z,6.65
2023-02-25T15:11:43.991Z,6.66
2023-02-25T15:17:28.643Z,6.56
2023-02-25T15:22:32.724Z,7.07
2023-02-25T15:27:56.786Z,7.14
2023-02-25T15:33:24.805Z,5.00
2023-02-25T15:38:44.095Z,4.96
2023-02-25T15:43:47.299Z,5.44
2023-02-25T15:49:05.663Z,5.21
2023-02-25T15:54:09.777Z,5.41
2023-02-25T15:59:13.149Z,5.52
2023-02-25T16:04:50.453Z,5.19
2023-02-25T16:09:57.972Z,5.71
2023-02-25T16:15:01.981Z,5.53
2023-02-25T16:20:18.037Z,5.73
2023-02-25T16:25:29.503Z,5.27
2023-02-25T16:30:41.422Z,5.77
2023-02-25T16:35:55.399Z,5.43
2023-02-25T16:41:03.122Z,4.96
2023-02-25T16:46:10.547Z,5.05
2023-02-25T16:51:24.211Z,4.72
2023-02-25T16:56:31.884Z,4.97
2023-02-25T17:01:37.875Z,4.57
2023-02-25T17:06:42.832Z,5.08
2023-02-25T17:11:57.029Z,5.28
2023-02-25T17:17:00.492Z,4.47
2023-02-25T17:22:05.409Z,4.81
2023-02-25T17:27:12.320Z,4.69
2023-02-25T17:32:22.035Z,4.78
2023-02-25T17:37:29.356Z,4.63
2023-02-25T17:42:35.462Z,4.70
2023-02-25T17:47:38.728Z,4.38
2023-02-25T17:52:49.022Z,4.27
2023-02-25T17:57:54.935Z,4.40
2023-02-25T18:03:17.892Z,4.50
2023-02-25T18:08:23.840Z,4.36
2023-02-25T18:13:33.726Z,4.25
2023-02-25T18:18:37.252Z,4.47
2023-02-25T18:23:41.527Z,4.31
2023-02-25T18:28:45.612Z,4.40
2023-02-25T18:33:48.720Z,4.19
2023-02-25T18:38:54.645Z,4.12
2023-02-25T18:43:57.376Z,4.23
2023-02-25T18:49:00.418Z,4.30
2023-02-25T18:54:04.876Z,4.29
2023-02-25T18:59:07.671Z,4.30
2023-02-25T19:04:17.255Z,4.22
2023-02-25T19:09:22.901Z,4.19
2023-02-25T19:14:44.895Z,3.73
2023-02-25T19:19:54.780Z,3.67
2023-02-25T19:25:05.729Z,3.66
2023-02-25T19:41:46.547Z,3.22
2023-02-25T19:52:15.668Z,3.39
2023-02-25T19:58:12.174Z,3.62
2023-02-25T20:03:59.478Z,4.00
2023-02-25T20:15:32.246Z,4.11
2023-02-25T20:20:37.084Z,3.87
2023-02-25T20:25:39.910Z,3.19
2023-02-25T21:53:33.674Z,2.31
2023-02-25T22:04:46.140Z,2.13
2023-02-25T22:09:50.375Z,2.64
2023-02-25T22:14:53.149Z,2.10
2023-02-25T22:19:55.865Z,2.45
2023-02-25T22:25:00.476Z,2.10
2023-02-25T22:30:03.357Z,1.94
2023-02-25T22:35:07.626Z,2.42
2023-02-25T22:40:13.370Z,2.15
2023-02-25T22:45:16.338Z,2.19
2023-02-25T22:50:19.224Z,2.05
2023-02-25T22:55:23.480Z,2.50
2023-02-25T23:00:26.363Z,2.54
2023-02-25T23:05:29.113Z,2.30
2023-02-25T23:10:35.983Z,1.99
2023-02-25T23:15:41.794Z,1.76
2023-02-25T23:20:47.402Z,2.14
2023-02-25T23:25:54.426Z,2.35
2023-02-25T23:30:57.214Z,1.91
2023-02-25T23:36:01.065Z,1.82
2023-02-25T23:41:05.420Z,1.85
2023-02-25T23:46:08.466Z,1.88
2023-02-25T23:51:11.224Z,1.54
2023-02-25T23:56:18.582Z,1.83
